Fenelton, PA

10:39 PM EST on November 22, 2014 (GMT -0500)
Beaver County | Change Station
CLOSE
Current Station
Airport
Location: Beaver Falls,
Elevation: 1253 ft
Nearby Weather Stations

Elev 1253 ft 40.77 °N, 80.39 °W | Updated 5 hours ago

Overcast
Overcast
41 °F
Feels Like 35 °F
N
9
Wind Variable Wind from South

Today
High -- | Low -- °F
--% Chance of Precip.
Yesterday
High -- | Low -- °F
Precip. -- in
7:14 AM 4:55 PM
New Moon, 0% visible
Pressure 30.12 in
Visibility 10.0 miles
Clouds Mostly Cloudy 8000 ft
Overcast 11000 ft
Windchill 35 °F
Dew Point 32 °F
Humidity 70%
Rainfall 0.00 in
Snow Depth Not available.
UV 0 out of 12
Pollen .10 out of 12
Air Quality Not available.
Flu Activity Not available.
METAR KBVI 222147Z 19008KT 10SM BKN080 OVC110 05/00 A3012 RMK LAST

More Conditions Fewer Conditions

Pressure 30.12 in
Visibility 10.0 miles
Clouds Mostly Cloudy 8000 ft
Overcast 11000 ft
Windchill 35 °F
Dew Point 32 °F
Humidity 70%
Rainfall 0.00 in
Snow Depth Not available.
UV 0 out of 12
Pollen .10 out of 12
Air Quality Not available.
Flu Activity Not available.
METAR KBVI 222147Z 19008KT 10SM BKN080 OVC110 05/00 A3012 RMK LAST

More Conditions Fewer Conditions

10-Day Weather Forecast

Almanac

Astronomy

Nov. 22, 2014 Rise Set
Actual Time
Civil Twilight
Nautical Twilight
Astronomical Twilight
Moon
Length of Visible Light
Length of Day
Tomorrow will be .
, % of the Moon is Illuminated

Today's Extremes

State Highs State Lows

Community

WunderPhotos

Upload Photos

1,772,991 photos uploaded!

WunderBlogs® & News

Nearby

Air Quality

  Air Quality AQ Index Pollutant
Not available.

Snow Depth

Station Depth Elevation

Earthquake Activity

City Distance Mag. Time & Date
Minimum magnitude displayed is 2.5.

Coastal Water Temperatures

Place Temperature

Nearby Weather Stations